createdAt,value
2023-03-16T00:01:15.267Z,12.00
2023-03-16T00:04:00.731Z,11.70
2023-03-16T00:06:45.869Z,10.63
2023-03-16T00:09:31.447Z,11.25
2023-03-16T00:12:18.687Z,9.93
2023-03-16T00:15:04.613Z,13.52
2023-03-16T00:17:49.932Z,12.60
2023-03-16T00:20:35.016Z,11.32
2023-03-16T00:23:20.175Z,11.15
2023-03-16T00:26:08.008Z,11.98
2023-03-16T00:28:54.387Z,12.88
2023-03-16T00:31:44.186Z,11.52
2023-03-16T00:37:17.210Z,18.95
2023-03-16T00:40:04.129Z,14.57
2023-03-16T00:42:49.617Z,11.55
2023-03-16T00:45:34.664Z,11.57
2023-03-16T00:48:21.310Z,13.95
2023-03-16T00:51:09.083Z,13.45
2023-03-16T00:53:54.124Z,13.75
2023-03-16T00:56:39.066Z,10.82
2023-03-16T00:59:26.217Z,11.25
2023-03-16T01:02:12.452Z,16.02
2023-03-16T01:04:57.827Z,11.25
2023-03-16T01:07:45.193Z,10.55
2023-03-16T01:10:30.552Z,12.18
2023-03-16T01:13:16.400Z,23.05
2023-03-16T01:16:01.785Z,15.38
2023-03-16T01:18:47.809Z,16.30
2023-03-16T01:21:33.794Z,13.98
2023-03-16T01:24:18.647Z,15.20
2023-03-16T01:27:05.009Z,12.55
2023-03-16T01:29:50.019Z,15.77
2023-03-16T01:32:35.018Z,16.15
2023-03-16T01:35:21.801Z,12.95
2023-03-16T01:38:06.940Z,19.85
2023-03-16T01:40:54.438Z,12.10
2023-03-16T01:43:40.755Z,15.95
2023-03-16T01:46:27.832Z,14.35
2023-03-16T01:49:36.386Z,17.73
2023-03-16T01:52:36.886Z,15.30
2023-03-16T01:55:22.658Z,14.23
2023-03-16T01:58:07.823Z,12.80
2023-03-16T02:00:54.040Z,15.05
2023-03-16T02:03:39.982Z,13.43
2023-03-16T02:06:25.433Z,18.63
2023-03-16T02:09:11.302Z,16.77
2023-03-16T02:11:57.171Z,19.45
2023-03-16T02:14:42.264Z,16.70
2023-03-16T02:17:29.711Z,16.55
2023-03-16T02:20:39.287Z,15.48
2023-03-16T02:26:28.964Z,17.15
2023-03-16T02:29:25.820Z,22.25
2023-03-16T02:32:12.855Z,13.07
2023-03-16T02:34:58.962Z,18.90
2023-03-16T02:37:44.213Z,17.52
2023-03-16T02:40:32.577Z,20.70
2023-03-16T02:43:24.879Z,23.83
2023-03-16T02:46:10.085Z,18.33
2023-03-16T02:49:06.296Z,19.40
2023-03-16T02:51:51.864Z,24.33
2023-03-16T02:54:36.841Z,23.70
2023-03-16T02:57:22.004Z,17.35
2023-03-16T03:00:12.354Z,15.82
2023-03-16T03:02:57.347Z,18.10
2023-03-16T03:05:42.366Z,20.05
2023-03-16T03:08:27.739Z,25.05
2023-03-16T03:11:13.142Z,22.48
2023-03-16T03:13:58.777Z,20.88
2023-03-16T03:16:46.745Z,21.13
2023-03-16T03:19:33.793Z,19.05
2023-03-16T03:22:19.041Z,22.58
2023-03-16T03:25:05.005Z,32.33
2023-03-16T03:27:51.281Z,21.38
2023-03-16T03:30:36.314Z,20.60
2023-03-16T03:33:24.526Z,23.42
2023-03-16T03:36:09.632Z,20.35
2023-03-16T03:38:54.868Z,24.85
2023-03-16T03:41:40.044Z,36.95
2023-03-16T03:44:27.004Z,21.25
2023-03-16T03:47:12.212Z,21.98
2023-03-16T03:49:57.566Z,16.30
2023-03-16T03:52:42.554Z,14.20
2023-03-16T03:55:27.830Z,17.52
2023-03-16T03:58:12.836Z,15.07
2023-03-16T04:00:58.500Z,20.77
2023-03-16T04:03:45.167Z,11.10
2023-03-16T04:06:30.510Z,14.70
2023-03-16T04:09:15.689Z,10.35
2023-03-16T04:12:01.860Z,16.27
2023-03-16T04:14:46.930Z,12.93
2023-03-16T04:17:34.410Z,13.65
2023-03-16T04:20:20.049Z,11.50
2023-03-16T04:26:08.224Z,7.57
2023-03-16T04:28:53.531Z,5.40
2023-03-16T04:31:38.457Z,9.43
2023-03-16T04:34:25.085Z,6.47
2023-03-16T04:37:10.105Z,7.88
2023-03-16T04:39:55.421Z,11.55
2023-03-16T04:42:40.631Z,11.73
2023-03-16T04:45:25.741Z,12.90
2023-03-16T04:48:11.121Z,13.38
2023-03-16T04:50:56.520Z,11.38
2023-03-16T04:53:41.749Z,17.85
2023-03-16T04:56:27.063Z,15.05
2023-03-16T04:59:13.321Z,16.65
2023-03-16T05:01:58.650Z,18.20
2023-03-16T05:04:44.166Z,22.13
2023-03-16T05:07:29.392Z,18.02
2023-03-16T05:10:18.767Z,14.90
2023-03-16T05:13:03.863Z,20.58
2023-03-16T05:15:49.347Z,16.10
2023-03-16T05:18:34.810Z,17.92
2023-03-16T05:21:20.373Z,24.98
2023-03-16T05:24:06.190Z,20.98
2023-03-16T05:26:51.314Z,18.85
2023-03-16T05:29:36.570Z,16.13
2023-03-16T05:32:22.210Z,13.70
2023-03-16T05:35:07.591Z,18.73
2023-03-16T05:37:52.790Z,13.77
2023-03-16T05:40:37.870Z,17.08
2023-03-16T05:43:23.146Z,15.15
2023-03-16T05:46:08.042Z,23.35
2023-03-16T05:48:53.055Z,12.02
2023-03-16T05:51:38.372Z,24.15
2023-03-16T05:54:24.247Z,18.42
2023-03-16T05:57:09.677Z,15.77
2023-03-16T05:59:54.936Z,12.25
2023-03-16T06:02:41.417Z,13.18
2023-03-16T06:05:28.600Z,10.68
2023-03-16T06:08:15.219Z,16.73
2023-03-16T06:11:00.227Z,17.70
2023-03-16T06:13:45.345Z,14.63
2023-03-16T06:16:31.084Z,11.98
2023-03-16T06:19:16.589Z,13.30
2023-03-16T06:22:01.875Z,11.02
2023-03-16T06:24:47.001Z,13.05
2023-03-16T06:27:32.060Z,11.00
2023-03-16T06:30:17.913Z,9.52
2023-03-16T06:33:03.253Z,8.57
2023-03-16T06:35:48.517Z,8.98
2023-03-16T06:38:33.871Z,15.27
2023-03-16T06:41:19.058Z,12.07
2023-03-16T06:44:06.052Z,10.23
2023-03-16T06:46:51.264Z,10.70
2023-03-16T06:49:36.410Z,12.50
2023-03-16T06:52:22.091Z,13.48
2023-03-16T06:55:08.270Z,14.98
2023-03-16T06:57:53.285Z,12.00
2023-03-16T07:00:38.788Z,10.43
2023-03-16T07:03:23.958Z,9.02
2023-03-16T07:06:09.612Z,10.15
2023-03-16T07:08:54.598Z,8.63
2023-03-16T07:11:40.643Z,7.22
2023-03-16T07:14:26.308Z,10.55
2023-03-16T07:17:11.420Z,4.30
2023-03-16T07:19:56.686Z,9.65
2023-03-16T07:22:41.940Z,5.40
2023-03-16T07:25:27.068Z,2.50
2023-03-16T07:28:12.456Z,3.22
2023-03-16T07:31:03.750Z,1.65
2023-03-16T07:33:49.456Z,2.75
2023-03-16T07:36:34.638Z,3.83
2023-03-16T07:39:19.534Z,6.43
2023-03-16T07:42:04.822Z,6.55
2023-03-16T07:44:51.813Z,3.42
2023-03-16T07:47:37.166Z,4.93
2023-03-16T07:50:22.616Z,4.22
2023-03-16T07:53:07.798Z,1.90
2023-03-16T07:55:53.330Z,3.70
2023-03-16T07:58:38.556Z,5.40
2023-03-16T08:01:24.316Z,6.53
2023-03-16T08:04:12.386Z,6.15
2023-03-16T08:07:00.362Z,9.88
2023-03-16T08:09:46.052Z,8.80
2023-03-16T08:12:32.075Z,4.80
2023-03-16T08:15:17.442Z,9.00
2023-03-16T08:18:02.641Z,8.98
2023-03-16T08:20:47.807Z,9.82
2023-03-16T08:23:33.791Z,9.55
2023-03-16T08:26:23.555Z,14.55
2023-03-16T08:29:08.774Z,14.30
2023-03-16T08:31:57.579Z,8.23
2023-03-16T08:34:42.795Z,13.68
2023-03-16T08:37:28.282Z,9.80
2023-03-16T08:40:20.224Z,10.32
2023-03-16T08:43:05.332Z,13.55
2023-03-16T08:45:50.877Z,11.00
2023-03-16T08:48:36.386Z,11.60
2023-03-16T08:51:21.947Z,15.40
2023-03-16T08:54:07.494Z,7.45
2023-03-16T08:56:52.463Z,11.15
2023-03-16T08:59:38.089Z,19.38
2023-03-16T09:02:24.034Z,13.70
2023-03-16T09:05:11.788Z,10.40
2023-03-16T09:07:57.669Z,7.93
2023-03-16T09:10:43.302Z,13.95
2023-03-16T09:13:28.846Z,11.75
2023-03-16T09:16:15.899Z,11.75
2023-03-16T09:19:01.027Z,14.75
2023-03-16T09:21:47.370Z,9.48
2023-03-16T09:24:32.529Z,13.75
2023-03-16T09:27:18.610Z,15.13
2023-03-16T09:30:05.382Z,13.20
2023-03-16T09:32:50.860Z,8.85
2023-03-16T09:35:37.226Z,20.63
2023-03-16T09:38:22.283Z,8.77
2023-03-16T09:41:10.667Z,17.25
2023-03-16T09:44:10.444Z,13.77
2023-03-16T09:46:59.517Z,10.05
2023-03-16T09:49:48.160Z,12.27
2023-03-16T09:52:44.782Z,18.27
2023-03-16T09:55:33.258Z,14.68
2023-03-16T09:58:21.343Z,9.45
2023-03-16T10:01:24.340Z,12.85
2023-03-16T10:04:33.564Z,11.35
2023-03-16T10:07:42.628Z,11.98
2023-03-16T10:10:40.177Z,14.30
2023-03-16T10:13:30.593Z,11.43
2023-03-16T10:16:34.883Z,14.48
2023-03-16T10:19:49.874Z,9.88
2023-03-16T10:22:39.290Z,11.23
2023-03-16T10:25:48.885Z,10.63
2023-03-16T10:28:33.881Z,9.88
2023-03-16T10:31:25.972Z,9.40
2023-03-16T10:34:11.716Z,6.28
2023-03-16T10:36:56.919Z,8.65
2023-03-16T10:39:45.082Z,8.80
2023-03-16T10:42:30.022Z,16.70
2023-03-16T10:45:32.419Z,8.60
2023-03-16T10:48:20.879Z,9.02
2023-03-16T10:51:16.980Z,12.20
2023-03-16T10:54:12.090Z,8.43
2023-03-16T10:56:59.002Z,6.05
2023-03-16T10:59:49.734Z,12.63
2023-03-16T11:02:35.498Z,8.23
2023-03-16T11:05:34.527Z,8.57
2023-03-16T11:08:25.652Z,10.93
2023-03-16T11:11:18.654Z,14.68
2023-03-16T11:14:11.356Z,7.95
2023-03-16T11:17:06.195Z,7.32
2023-03-16T11:19:56.685Z,13.77
2023-03-16T11:22:45.649Z,7.97
2023-03-16T11:25:41.418Z,8.07
2023-03-16T11:28:36.644Z,6.63
2023-03-16T11:31:49.357Z,12.18
2023-03-16T11:34:35.307Z,7.18
2023-03-16T11:37:56.064Z,9.27
2023-03-16T11:40:50.661Z,7.43
2023-03-16T11:44:01.506Z,5.75
2023-03-16T11:47:24.007Z,8.65
2023-03-16T11:50:38.484Z,8.80
2023-03-16T11:53:30.682Z,13.02
2023-03-16T11:56:35.924Z,5.38
2023-03-16T11:59:42.342Z,8.85
2023-03-16T12:02:50.421Z,12.52
2023-03-16T12:05:57.144Z,7.05
2023-03-16T12:08:45.183Z,7.28
2023-03-16T12:11:45.886Z,9.45
2023-03-16T12:14:41.381Z,10.00
2023-03-16T12:17:31.297Z,5.50
2023-03-16T12:20:21.208Z,5.50
2023-03-16T12:23:14.849Z,5.43
2023-03-16T12:26:00.892Z,6.28
2023-03-16T12:28:48.263Z,5.97
2023-03-16T12:31:42.618Z,10.68
2023-03-16T12:34:44.283Z,8.02
2023-03-16T12:37:50.258Z,7.38
2023-03-16T12:40:46.437Z,7.85
2023-03-16T12:43:51.101Z,6.90
2023-03-16T12:46:39.592Z,5.78
2023-03-16T12:49:26.464Z,9.88
2023-03-16T12:52:14.600Z,6.30
2023-03-16T12:55:27.692Z,11.07
2023-03-16T12:58:16.939Z,10.88
2023-03-16T13:01:11.470Z,6.60
2023-03-16T13:07:05.141Z,11.13
2023-03-16T13:09:59.032Z,9.00
2023-03-16T13:12:46.240Z,4.20
2023-03-16T13:15:31.666Z,9.77
2023-03-16T13:18:17.044Z,8.23
2023-03-16T13:21:23.067Z,4.68
2023-03-16T13:24:18.074Z,5.82
2023-03-16T13:27:12.369Z,6.95
2023-03-16T13:30:00.261Z,7.85
2023-03-16T13:32:46.776Z,6.22
2023-03-16T13:35:32.088Z,5.82
2023-03-16T13:38:20.619Z,6.93
2023-03-16T13:41:11.146Z,3.95
2023-03-16T13:43:56.323Z,6.03
2023-03-16T13:46:41.700Z,7.13
2023-03-16T13:52:20.964Z,5.25
2023-03-16T13:55:34.641Z,6.07
2023-03-16T13:58:24.358Z,6.18
2023-03-16T14:01:25.344Z,5.55
2023-03-16T14:04:17.816Z,5.10
2023-03-16T14:07:03.921Z,3.22
2023-03-16T14:09:50.567Z,4.72
2023-03-16T14:12:37.783Z,7.05
2023-03-16T14:15:26.657Z,5.57
2023-03-16T14:18:21.457Z,8.05
2023-03-16T14:21:16.460Z,6.25
2023-03-16T14:24:05.641Z,10.50
2023-03-16T14:26:50.976Z,5.93
2023-03-16T14:29:37.105Z,11.82
2023-03-16T14:32:33.364Z,5.07
2023-03-16T14:35:21.538Z,6.78
2023-03-16T14:38:29.040Z,4.00
2023-03-16T14:41:31.521Z,6.80
2023-03-16T14:44:28.053Z,4.53
2023-03-16T14:47:25.266Z,6.78
2023-03-16T14:50:17.771Z,5.38
2023-03-16T14:53:04.365Z,5.90
2023-03-16T14:55:49.627Z,9.77
2023-03-16T14:58:36.457Z,4.97
2023-03-16T15:01:21.826Z,6.32
2023-03-16T15:04:07.474Z,7.13
2023-03-16T15:06:52.594Z,4.43
2023-03-16T15:09:40.899Z,5.30
2023-03-16T15:12:26.265Z,6.05
2023-03-16T15:15:16.570Z,4.88
2023-03-16T15:18:02.090Z,4.78
2023-03-16T15:20:49.730Z,5.32
2023-03-16T15:23:34.941Z,3.03
2023-03-16T15:26:26.243Z,5.70
2023-03-16T15:29:11.858Z,9.57
2023-03-16T15:31:57.069Z,3.30
2023-03-16T15:34:43.157Z,5.35
2023-03-16T15:37:30.162Z,7.93
2023-03-16T15:40:22.647Z,8.10
2023-03-16T15:43:19.452Z,8.20
2023-03-16T15:46:05.244Z,6.82
2023-03-16T15:48:50.351Z,7.88
2023-03-16T15:51:35.597Z,5.53
2023-03-16T15:54:21.146Z,6.00
2023-03-16T15:57:06.156Z,5.63
2023-03-16T15:59:52.437Z,5.75
2023-03-16T16:02:37.705Z,5.35
2023-03-16T16:05:24.226Z,4.57
2023-03-16T16:08:11.116Z,5.88
2023-03-16T16:10:56.454Z,9.23
2023-03-16T16:13:44.962Z,7.03
2023-03-16T16:16:32.090Z,10.73
2023-03-16T16:19:18.862Z,6.85
2023-03-16T16:22:04.398Z,8.88
2023-03-16T16:24:50.035Z,8.65
2023-03-16T16:27:34.929Z,6.60
2023-03-16T16:30:26.502Z,6.50
2023-03-16T16:33:35.698Z,6.82
2023-03-16T16:36:22.527Z,7.22
2023-03-16T16:39:08.291Z,5.35
2023-03-16T16:41:55.350Z,8.13
2023-03-16T16:44:40.352Z,10.60
2023-03-16T16:47:25.543Z,9.88
2023-03-16T16:50:19.360Z,6.40
2023-03-16T16:53:19.898Z,5.72
2023-03-16T16:56:11.587Z,5.88
2023-03-16T16:58:59.546Z,7.65
2023-03-16T17:01:47.199Z,9.00
2023-03-16T17:04:32.212Z,8.20
2023-03-16T17:07:17.379Z,7.70
2023-03-16T17:10:04.892Z,10.10
2023-03-16T17:12:52.484Z,6.40
2023-03-16T17:15:38.241Z,11.57
2023-03-16T17:18:23.442Z,8.73
2023-03-16T17:21:13.738Z,8.02
2023-03-16T17:24:00.321Z,7.00
2023-03-16T17:26:49.399Z,12.55
2023-03-16T17:29:34.443Z,8.85
2023-03-16T17:32:22.931Z,6.35
2023-03-16T17:35:15.688Z,9.00
2023-03-16T17:38:00.888Z,7.90
2023-03-16T17:40:46.893Z,11.77
2023-03-16T17:43:32.245Z,9.20
2023-03-16T17:46:20.544Z,6.40
2023-03-16T17:49:20.679Z,9.32
2023-03-16T17:52:13.270Z,7.45
2023-03-16T17:54:58.714Z,9.10
2023-03-16T17:57:43.901Z,10.88
2023-03-16T18:00:35.074Z,7.35
2023-03-16T18:03:21.874Z,9.30
2023-03-16T18:06:06.875Z,12.07
2023-03-16T18:08:53.099Z,6.05
2023-03-16T18:11:41.755Z,7.15
2023-03-16T18:14:35.539Z,10.43
2023-03-16T18:17:25.036Z,8.75
2023-03-16T18:20:22.783Z,10.13
2023-03-16T18:23:20.919Z,5.90
2023-03-16T18:26:07.078Z,7.20
2023-03-16T18:28:53.547Z,9.43
2023-03-16T18:31:38.892Z,6.40
2023-03-16T18:34:30.713Z,10.27
2023-03-16T18:37:25.335Z,8.02
2023-03-16T18:40:17.108Z,11.02
2023-03-16T18:43:02.643Z,6.45
2023-03-16T18:45:48.581Z,8.52
2023-03-16T18:48:35.150Z,8.75
2023-03-16T18:51:21.701Z,9.07
2023-03-16T18:54:22.437Z,10.02
2023-03-16T18:57:18.368Z,10.73
2023-03-16T19:00:04.409Z,13.80
2023-03-16T19:02:56.254Z,10.32
2023-03-16T19:05:41.764Z,15.63
2023-03-16T19:08:31.579Z,13.45
2023-03-16T19:11:18.116Z,12.80
2023-03-16T19:14:03.180Z,12.00
2023-03-16T19:16:48.572Z,6.50
2023-03-16T19:19:33.884Z,6.60
2023-03-16T19:22:21.315Z,9.75
2023-03-16T19:25:07.323Z,9.23
2023-03-16T19:27:53.932Z,7.05
2023-03-16T19:30:39.537Z,12.00
2023-03-16T19:33:28.583Z,11.57
2023-03-16T19:36:16.456Z,15.20
2023-03-16T19:39:01.967Z,14.13
2023-03-16T19:41:54.224Z,11.23
2023-03-16T19:44:39.513Z,11.75
2023-03-16T19:47:28.673Z,10.70
2023-03-16T19:50:16.564Z,12.50
2023-03-16T19:53:02.345Z,9.13
2023-03-16T19:55:49.498Z,16.33
2023-03-16T19:58:41.656Z,13.63
2023-03-16T20:01:32.706Z,7.53
2023-03-16T20:04:20.517Z,7.53
2023-03-16T20:07:11.936Z,9.15
2023-03-16T20:09:57.311Z,14.57
2023-03-16T20:12:42.769Z,7.93
2023-03-16T20:15:32.476Z,12.35
2023-03-16T20:18:18.988Z,10.10
2023-03-16T20:21:04.554Z,9.30
2023-03-16T20:23:50.436Z,11.50
2023-03-16T20:26:37.276Z,6.65
2023-03-16T20:29:28.847Z,12.20
2023-03-16T20:32:21.132Z,7.20
2023-03-16T20:35:18.746Z,8.18
2023-03-16T20:38:04.103Z,7.55
2023-03-16T20:40:52.480Z,9.15
2023-03-16T20:43:37.625Z,9.63
2023-03-16T20:46:26.476Z,11.73
2023-03-16T20:49:25.341Z,11.20
2023-03-16T20:52:19.144Z,5.65
2023-03-16T20:55:05.306Z,6.60
2023-03-16T20:57:52.453Z,6.88
2023-03-16T21:00:39.215Z,8.75
2023-03-16T21:03:28.381Z,7.95
2023-03-16T21:06:27.546Z,10.23
2023-03-16T21:09:12.740Z,4.82
2023-03-16T21:11:58.181Z,9.35
2023-03-16T21:14:43.488Z,8.43
2023-03-16T21:17:34.499Z,9.68
2023-03-16T21:20:21.591Z,9.63
2023-03-16T21:23:13.124Z,7.82
2023-03-16T21:26:03.666Z,8.90
2023-03-16T21:28:58.131Z,8.15
2023-03-16T21:31:43.528Z,10.20
2023-03-16T21:34:33.980Z,7.65
2023-03-16T21:37:23.906Z,5.35
2023-03-16T21:43:09.120Z,7.47
2023-03-16T21:45:57.397Z,13.00
2023-03-16T21:48:42.896Z,6.95
2023-03-16T21:51:32.765Z,5.63
2023-03-16T21:54:18.252Z,8.85
2023-03-16T21:57:13.875Z,6.82
2023-03-16T21:59:58.782Z,13.73
2023-03-16T22:02:43.991Z,8.63
2023-03-16T22:05:32.030Z,7.53
2023-03-16T22:08:19.979Z,15.65
2023-03-16T22:11:15.615Z,12.93
2023-03-16T22:14:01.499Z,6.50
2023-03-16T22:16:46.838Z,4.97
2023-03-16T22:19:32.984Z,6.97
2023-03-16T22:22:17.971Z,8.77
2023-03-16T22:25:09.723Z,7.50
2023-03-16T22:27:55.092Z,9.05
2023-03-16T22:30:40.583Z,10.63
2023-03-16T22:33:29.837Z,7.00
2023-03-16T22:36:18.496Z,8.43
2023-03-16T22:39:08.837Z,10.57
2023-03-16T22:41:54.189Z,7.65
2023-03-16T22:44:39.469Z,4.45
2023-03-16T22:47:32.505Z,5.60
2023-03-16T22:50:19.976Z,6.38
2023-03-16T22:53:08.176Z,6.78
2023-03-16T22:55:56.440Z,13.32
2023-03-16T22:58:55.243Z,10.13
2023-03-16T23:01:43.582Z,8.10
2023-03-16T23:04:32.815Z,9.60
2023-03-16T23:07:18.325Z,9.80
2023-03-16T23:10:03.596Z,7.68
2023-03-16T23:12:50.098Z,7.85
2023-03-16T23:15:38.241Z,9.35
2023-03-16T23:18:25.697Z,7.57
2023-03-16T23:21:20.694Z,10.43
2023-03-16T23:24:06.300Z,12.98
2023-03-16T23:26:53.846Z,10.13
2023-03-16T23:29:39.149Z,9.48
2023-03-16T23:32:24.315Z,7.82
2023-03-16T23:35:18.969Z,7.97
2023-03-16T23:38:04.134Z,10.02
2023-03-16T23:40:49.806Z,10.50
2023-03-16T23:43:34.896Z,6.68
2023-03-16T23:46:22.714Z,10.00
2023-03-16T23:49:17.593Z,10.25
2023-03-16T23:52:02.897Z,6.60
2023-03-16T23:54:49.782Z,6.78
2023-03-16T23:57:35.100Z,10.55
